Weather at London Stansted Airport

Public forecast

Using degrees Celsius for public forecast. Weather courtesy of forecast.io.

Current aviation weather report (METAR) for London Stansted Airport

Retrieved 2021/04/20 22:50 UTC (18 minutes ago):

EGSS 202250Z AUTO 32002KT 1500 HZ NCD 07/05 Q1018

Aviation forecast (TAF) for London Stansted Airport

Retrieved 2021/04/20 18:00 UTC (5 hours ago):

TAF EGSS 201654Z 2018/2124 10004KT 9999 FEW045 TEMPO 2020/2024 7000 PROB30 TEMPO 2021/2023 4000 BR BECMG 2023/2102 3000 BR PROB30 2023/2106 0300 FG BKN001 BECMG 2105/2107 8000 NSW PROB30 TEMPO 2105/2109 BKN007 BECMG 2107/2110 04010KT 9999